KFYV

Drake Field Airport

Fayetteville, Arkansas, USA
METAR KFYV 150053Z 20007KT 10SM CLR 22/19 A2994 RMK AO2 SLP127 T02220194
Observed Flight Rules
Aug-15 @ 00:53 UTC (12 minutes ago) Visual Flight Rules
Wind Visibility Clouds
200° at 7 knots 10 miles
  • Clear skies
Temperatures Readings
Current 22°C / 72°F
Dewpoint 19°C / 66°F
Humidity 83%
Altimeter 29.94" Hg
Pressure 1012.7 hPa
Elevation 379
METAR KFYV 150053Z 20007KT 10SM CLR 22/19 A2994 RMK AO2 SLP127 T02220194
Observed Flight Rules
Aug-15 @ 00:53 UTC
(12 minutes ago)
VFR
Wind Visibility
200° at 7 knots 10 miles
Clouds
  • Clear skies
Temperature Dewpoint
22°C / 72°F 19°C / 66°F
Humidity Altimeter Pressure
83% 29.94" Hg 1012.7 hPa